Time;durP1;ratioP1;P1;durP2;ratioP2;P2;SDS_P1;SDS_P2;PMS_P1;PMS_P2;Temp;Humidity;BMP_temperature;BMP_pressure;BME280_temperature;BME280_humidity;BME280_pressure;Samples;Min_cycle;Max_cycle;Signal;HPM_P1;HPM_P2
2023/05/28 00:00:32;;;;;;;;;;;;;;;17.36;45.78;97206.50;6298475;28;19971;-73
2023/05/28 00:03:35;;;;;;;;;;;;;;;17.25;45.53;97206.59;6297824;28;20054;-73
2023/05/28 00:06:38;;;;;;;;;;;;;;;17.15;45.82;97201.22;6298140;28;20309;-73
2023/05/28 00:09:41;;;;;;;;;;;;;;;17.26;45.79;97208.28;6297498;28;19970;-73
2023/05/28 00:12:47;;;;;;;;;;;;;;;17.17;46.02;97214.41;6296648;28;19929;-73
2023/05/28 00:15:51;;;;;;;;;;;;;;;17.20;45.81;97206.16;6297939;28;20003;-73
2023/05/28 00:18:52;;;;;;;;;;;;;;;17.33;45.85;97212.09;6297338;28;20389;-73
2023/05/28 00:21:55;;;;;;;;;;;;;;;17.40;45.99;97213.25;6297625;28;19987;-74
2023/05/28 00:24:59;;;;;;;;;;;;;;;17.47;45.71;97208.25;6297345;28;20022;-73
2023/05/28 00:28:03;;;;;;;;;;;;;;;17.39;46.13;97206.25;6296402;28;19924;-73
2023/05/28 00:31:09;;;;;;;;;;;;;;;17.44;46.08;97209.34;6297198;28;19924;-75
2023/05/28 00:34:13;;;;;;;;;;;;;;;17.38;46.10;97209.88;6297383;28;19925;-74
2023/05/28 00:37:18;;;;;;;;;;;;;;;17.35;46.11;97210.13;6297648;28;19924;-74
2023/05/28 00:40:22;;;;;;;;;;;;;;;17.22;46.15;97214.84;6297216;28;20430;-74
2023/05/28 00:43:23;;;;;;;;;;;;;;;17.35;46.35;97219.94;6296817;28;19925;-73
2023/05/28 00:46:27;;;;;;;;;;;;;;;17.37;46.54;97218.00;6296379;28;20030;-74
2023/05/28 00:49:29;;;;;;;;;;;;;;;17.40;46.16;97223.03;6296197;28;19931;-74
2023/05/28 00:52:31;;;;;;;;;;;;;;;17.46;46.52;97218.03;6296887;28;19924;-74
2023/05/28 00:55:35;;;;;;;;;;;;;;;17.58;46.54;97220.59;6297006;28;19924;-74
2023/05/28 00:58:39;;;;;;;;;;;;;;;17.60;46.55;97214.16;6296422;28;19929;-74
2023/05/28 01:01:46;;;;;;;;;;;;;;;17.48;46.72;97213.41;6296822;28;19929;-73
2023/05/28 01:04:47;;;;;;;;;;;;;;;17.52;46.69;97211.31;6296013;28;19924;-73
2023/05/28 01:07:49;;;;;;;;;;;;;;;17.63;46.90;97213.88;6295703;28;19924;-73
2023/05/28 01:10:51;;;;;;;;;;;;;;;17.80;46.50;97217.75;6295581;28;20419;-73
2023/05/28 01:13:54;;;;;;;;;;;;;;;17.79;46.52;97226.72;6296044;28;20391;-73
2023/05/28 01:17:01;;;;;;;;;;;;;;;17.84;46.65;97215.69;6296336;28;20348;-73
2023/05/28 01:20:13;;;;;;;;;;;;;;;17.92;46.45;97219.34;6296123;28;19925;-73
2023/05/28 01:23:22;;;;;;;;;;;;;;;17.93;46.39;97226.34;6296140;28;20398;-74
2023/05/28 01:26:27;;;;;;;;;;;;;;;17.89;46.19;97230.25;6295995;28;19982;-73
2023/05/28 01:29:31;;;;;;;;;;;;;;;18.07;46.13;97227.78;6295662;28;19924;-74
2023/05/28 01:32:34;;;;;;;;;;;;;;;18.22;45.69;97236.19;6296092;28;20314;-73
2023/05/28 01:35:35;;;;;;;;;;;;;;;18.31;45.47;97235.34;6295099;28;19921;-74
2023/05/28 01:38:39;;;;;;;;;;;;;;;18.44;45.53;97235.09;6294924;28;20065;-73
2023/05/28 01:41:45;;;;;;;;;;;;;;;18.44;45.27;97231.59;6295727;28;20400;-75
2023/05/28 01:44:47;;;;;;;;;;;;;;;18.54;45.04;97235.94;6295551;28;19927;-72
2023/05/28 01:47:50;;;;;;;;;;;;;;;18.63;45.17;97240.44;6295551;28;19925;-74
2023/05/28 01:50:54;;;;;;;;;;;;;;;18.70;45.11;97255.84;6295342;28;19925;-75
2023/05/28 01:53:57;;;;;;;;;;;;;;;18.71;44.97;97247.72;6295129;28;19924;-73
2023/05/28 01:57:01;;;;;;;;;;;;;;;18.75;44.82;97243.81;6295575;28;20413;-72
2023/05/28 02:00:03;;;;;;;;;;;;;;;18.88;44.70;97242.69;6295088;28;19924;-74
2023/05/28 02:03:11;;;;;;;;;;;;;;;18.99;44.59;97245.19;6295322;28;20384;-74
2023/05/28 02:06:12;;;;;;;;;;;;;;;19.12;44.23;97256.41;6295449;28;20015;-76
2023/05/28 02:09:14;;;;;;;;;;;;;;;19.28;43.82;97255.81;6295279;28;19924;-73
2023/05/28 02:12:15;;;;;;;;;;;;;;;19.45;43.62;97251.56;6295050;28;19924;-74
2023/05/28 02:15:16;;;;;;;;;;;;;;;19.59;43.39;97253.75;6294758;28;20304;-73
2023/05/28 02:18:22;;;;;;;;;;;;;;;19.73;43.33;97255.97;6295296;28;19925;-72
2023/05/28 02:21:28;;;;;;;;;;;;;;;19.89;43.41;97254.47;6294583;28;20282;-73
2023/05/28 02:24:31;;;;;;;;;;;;;;;20.08;42.62;97257.03;6295087;28;20401;-73
2023/05/28 02:27:35;;;;;;;;;;;;;;;20.31;42.31;97259.31;6294967;28;19931;-72
2023/05/28 02:30:38;;;;;;;;;;;;;;;20.56;41.59;97255.91;6295248;28;19932;-72
2023/05/28 02:33:41;;;;;;;;;;;;;;;20.86;41.40;97259.16;6294552;28;20414;-74
2023/05/28 02:36:42;;;;;;;;;;;;;;;21.10;41.21;97260.38;6294891;28;19924;-74
2023/05/28 02:39:45;;;;;;;;;;;;;;;21.40;40.54;97251.94;6295111;28;19924;-74
2023/05/28 02:42:49;;;;;;;;;;;;;;;21.74;40.08;97256.47;6294776;28;20002;-73
2023/05/28 02:45:53;;;;;;;;;;;;;;;22.07;39.71;97248.53;6294544;28;19932;-74
2023/05/28 02:48:54;;;;;;;;;;;;;;;22.35;39.57;97252.66;6297630;28;19931;-73
2023/05/28 02:51:57;;;;;;;;;;;;;;;22.54;39.21;97256.06;6299497;28;19924;-74
2023/05/28 02:55:02;;;;;;;;;;;;;;;22.73;39.00;97261.13;6299543;28;19924;-73
2023/05/28 02:58:05;;;;;;;;;;;;;;;22.92;38.63;97259.09;6298805;28;20050;-72
2023/05/28 03:01:09;;;;;;;;;;;;;;;23.13;38.34;97261.31;6299749;28;19932;-73
2023/05/28 03:04:10;;;;;;;;;;;;;;;23.39;38.21;97261.97;6299623;28;19988;-73
2023/05/28 03:07:11;;;;;;;;;;;;;;;23.66;37.70;97263.41;6299680;28;19927;-72
2023/05/28 03:10:12;;;;;;;;;;;;;;;23.92;37.06;97268.56;6298185;28;20026;-74
2023/05/28 03:13:14;;;;;;;;;;;;;;;24.16;36.75;97259.56;6298899;28;20452;-73
2023/05/28 03:16:18;;;;;;;;;;;;;;;24.44;36.52;97251.03;6299143;28;19925;-74
2023/05/28 03:19:19;;;;;;;;;;;;;;;24.82;35.73;97267.25;6298985;28;20504;-75
2023/05/28 03:22:20;;;;;;;;;;;;;;;25.13;35.51;97263.63;6299002;28;20297;-74
2023/05/28 03:25:24;;;;;;;;;;;;;;;25.42;35.12;97266.44;6298862;28;19946;-73
2023/05/28 03:28:29;;;;;;;;;;;;;;;25.70;34.77;97271.19;6299352;28;19924;-74
2023/05/28 03:31:30;;;;;;;;;;;;;;;25.92;34.54;97277.56;6298460;28;20283;-72
2023/05/28 03:34:35;;;;;;;;;;;;;;;26.20;34.15;97269.63;6298846;28;20014;-72
2023/05/28 03:37:38;;;;;;;;;;;;;;;26.51;34.16;97273.97;6298378;28;19998;-74
2023/05/28 03:40:42;;;;;;;;;;;;;;;26.60;34.01;97268.25;6298736;28;19958;-73
2023/05/28 03:43:48;;;;;;;;;;;;;;;26.57;33.57;97270.50;6298863;28;19924;-73
2023/05/28 03:46:51;;;;;;;;;;;;;;;26.45;33.31;97266.59;6298058;28;19924;-73
2023/05/28 03:49:55;;;;;;;;;;;;;;;26.43;33.76;97264.91;6297983;28;20305;-74
2023/05/28 03:52:58;;;;;;;;;;;;;;;26.20;33.40;97266.91;6298359;28;20304;-73
2023/05/28 03:56:04;;;;;;;;;;;;;;;26.03;33.94;97268.16;6298450;28;19920;-73
2023/05/28 03:59:07;;;;;;;;;;;;;;;25.91;33.71;97271.31;6296187;28;20317;-73
2023/05/28 04:02:10;;;;;;;;;;;;;;;25.83;33.71;97274.13;6297602;28;20292;-74
2023/05/28 04:05:14;;;;;;;;;;;;;;;25.93;32.94;97268.44;6298235;28;20401;-73
2023/05/28 04:08:18;;;;;;;;;;;;;;;25.81;33.21;97265.34;6298429;28;19925;-74
2023/05/28 04:11:21;;;;;;;;;;;;;;;25.77;32.96;97266.75;6297602;28;19924;-74
2023/05/28 04:14:25;;;;;;;;;;;;;;;25.74;32.78;97269.81;6297784;28;20293;-73
2023/05/28 04:17:31;;;;;;;;;;;;;;;25.81;32.87;97265.34;6297740;28;19929;-74
2023/05/28 04:20:32;;;;;;;;;;;;;;;25.89;32.88;97267.97;6297029;28;19931;-73
2023/05/28 04:23:38;;;;;;;;;;;;;;;26.01;31.91;97275.59;6297352;28;19924;-74
2023/05/28 04:26:39;;;;;;;;;;;;;;;26.15;31.25;97261.25;6296988;28;19924;-74
2023/05/28 04:29:44;;;;;;;;;;;;;;;26.17;30.97;97260.03;6296901;28;20297;-74
2023/05/28 04:32:48;;;;;;;;;;;;;;;26.25;30.68;97260.97;6297472;28;19932;-74
2023/05/28 04:35:51;;;;;;;;;;;;;;;26.51;30.75;97260.47;6296974;28;19928;-74
2023/05/28 04:38:54;;;;;;;;;;;;;;;27.67;29.32;97271.91;6295467;28;20583;-74
2023/05/28 04:41:55;;;;;;;;;;;;;;;30.24;26.28;97279.97;6296877;28;19925;-74
2023/05/28 04:44:58;;;;;;;;;;;;;;;32.60;23.42;97283.94;6296872;28;19924;-73
2023/05/28 04:48:01;;;;;;;;;;;;;;;34.38;20.79;97283.97;6296655;28;20301;-74
2023/05/28 04:51:05;;;;;;;;;;;;;;;36.32;19.88;97292.00;6296707;28;20523;-72
2023/05/28 04:54:07;;;;;;;;;;;;;;;38.18;18.75;97301.75;6296546;28;19982;-73
2023/05/28 04:57:11;;;;;;;;;;;;;;;40.00;16.49;97287.84;6296953;28;19931;-74
2023/05/28 05:00:12;;;;;;;;;;;;;;;41.33;14.87;97298.31;6296905;28;19932;-74
2023/05/28 05:03:14;;;;;;;;;;;;;;;43.05;15.31;97296.78;6296259;28;19924;-74
2023/05/28 05:06:16;;;;;;;;;;;;;;;44.48;12.22;97301.06;6296447;28;20007;-74
2023/05/28 05:09:20;;;;;;;;;;;;;;;45.24;11.85;97299.41;6296449;28;19966;-73
2023/05/28 05:12:21;;;;;;;;;;;;;;;45.43;11.06;97299.19;6295956;28;19925;-74
2023/05/28 05:15:23;;;;;;;;;;;;;;;45.24;11.95;97302.19;6295259;28;19932;-72
2023/05/28 05:18:25;;;;;;;;;;;;;;;46.38;11.23;97305.72;6295871;28;19967;-73
2023/05/28 05:21:32;;;;;;;;;;;;;;;47.50;10.69;97307.06;6296089;28;19931;-74
2023/05/28 05:24:36;;;;;;;;;;;;;;;49.10;10.59;97313.06;6295235;28;19931;-73
2023/05/28 05:27:37;;;;;;;;;;;;;;;50.09;8.51;97303.94;6295944;28;19928;-74
2023/05/28 05:30:40;;;;;;;;;;;;;;;49.64;8.57;97303.91;6294765;28;20290;-74
2023/05/28 05:33:44;;;;;;;;;;;;;;;49.24;8.75;97304.44;6295894;28;19931;-73
2023/05/28 05:36:47;;;;;;;;;;;;;;;49.16;8.88;97305.28;6295135;28;20340;-73
2023/05/28 05:39:50;;;;;;;;;;;;;;;49.08;9.48;97297.78;6295168;28;19928;-74
2023/05/28 05:42:51;;;;;;;;;;;;;;;50.14;8.88;97308.50;6295265;28;19924;-73
2023/05/28 05:45:57;;;;;;;;;;;;;;;50.43;8.68;97293.50;6296021;28;20378;-74
2023/05/28 05:48:58;;;;;;;;;;;;;;;50.59;8.75;97304.78;6295085;28;20049;-73
2023/05/28 05:52:02;;;;;;;;;;;;;;;51.48;7.68;97303.16;6294805;28;20027;-73
2023/05/28 05:55:04;;;;;;;;;;;;;;;52.26;7.76;97301.66;6295122;28;20023;-73
2023/05/28 05:58:05;;;;;;;;;;;;;;;52.62;7.52;97302.56;6294952;28;19924;-73
2023/05/28 06:01:08;;;;;;;;;;;;;;;53.51;7.24;97304.63;6294801;28;19935;-73
2023/05/28 06:04:10;;;;;;;;;;;;;;;54.26;7.17;97305.22;6294697;28;19939;-73
2023/05/28 06:07:13;;;;;;;;;;;;;;;54.01;7.17;97301.97;6295076;28;20085;-73
2023/05/28 06:10:17;;;;;;;;;;;;;;;54.11;6.45;97303.38;6294566;28;19931;-74
2023/05/28 06:13:19;;;;;;;;;;;;;;;53.04;6.46;97290.75;6293532;28;19951;-73
2023/05/28 06:16:23;;;;;;;;;;;;;;;52.63;7.14;97287.34;6294769;28;19947;-72
2023/05/28 06:19:27;;;;;;;;;;;;;;;52.73;6.46;97292.44;6294965;28;19925;-72
2023/05/28 06:22:29;;;;;;;;;;;;;;;52.48;6.75;97287.00;6294033;28;19966;-72
2023/05/28 06:25:37;;;;;;;;;;;;;;;51.75;6.95;97287.47;6294997;28;19932;-73
2023/05/28 06:28:38;;;;;;;;;;;;;;;51.97;6.92;97275.66;6294964;28;20093;-73
2023/05/28 06:31:45;;;;;;;;;;;;;;;52.75;6.37;97284.47;6294815;28;19924;-73
2023/05/28 06:34:47;;;;;;;;;;;;;;;52.92;6.04;97281.22;6294610;28;19924;-73
2023/05/28 06:37:51;;;;;;;;;;;;;;;52.39;6.39;97272.34;6294277;28;19931;-73
2023/05/28 06:40:54;;;;;;;;;;;;;;;53.07;5.93;97281.56;6294767;28;19925;-73
2023/05/28 06:44:01;;;;;;;;;;;;;;;53.48;5.91;97282.03;6294779;28;19969;-73
2023/05/28 06:47:06;;;;;;;;;;;;;;;54.57;5.80;97278.78;6294574;28;19932;-73
2023/05/28 06:50:07;;;;;;;;;;;;;;;56.35;5.15;97287.03;6294073;28;19924;-73
2023/05/28 06:53:11;;;;;;;;;;;;;;;57.73;5.47;97286.19;6294378;28;20027;-73
2023/05/28 06:56:16;;;;;;;;;;;;;;;57.60;4.83;97289.78;6296240;28;19930;-73
2023/05/28 06:59:24;;;;;;;;;;;;;;;55.36;5.18;97277.09;6295960;28;19924;-73
2023/05/28 07:02:29;;;;;;;;;;;;;;;54.67;6.18;97275.34;6294617;28;19924;-73
2023/05/28 07:05:32;;;;;;;;;;;;;;;55.44;5.74;97278.00;6294748;28;20365;-74
2023/05/28 07:08:40;;;;;;;;;;;;;;;56.33;5.35;97267.63;6295688;28;20467;-73
2023/05/28 07:11:43;;;;;;;;;;;;;;;55.84;4.80;97271.59;6295614;28;19925;-73
2023/05/28 07:14:47;;;;;;;;;;;;;;;50.53;7.18;97264.19;6293539;28;19924;-73
2023/05/28 07:17:51;;;;;;;;;;;;;;;44.95;10.11;97237.84;6294296;28;19930;-74
2023/05/28 07:20:55;;;;;;;;;;;;;;;44.30;10.66;97227.84;6294136;28;19925;-74
2023/05/28 07:23:58;;;;;;;;;;;;;;;47.58;8.43;97226.22;6293766;28;19930;-73
2023/05/28 07:27:00;;;;;;;;;;;;;;;50.82;7.29;97228.69;6293770;28;19932;-73
2023/05/28 07:30:02;;;;;;;;;;;;;;;52.55;6.20;97229.34;6293531;28;20019;-72
2023/05/28 07:33:06;;;;;;;;;;;;;;;53.47;5.37;97235.41;6293662;28;19924;-73
2023/05/28 07:36:13;;;;;;;;;;;;;;;53.74;5.86;97231.53;6297325;28;20024;-73
2023/05/28 07:39:15;;;;;;;;;;;;;;;56.23;4.78;97235.28;6298007;28;19947;-72
2023/05/28 07:42:17;;;;;;;;;;;;;;;54.27;4.62;97237.25;6296377;28;19924;-74
2023/05/28 07:45:19;;;;;;;;;;;;;;;50.62;6.47;97222.88;6298049;28;19924;-74
2023/05/28 07:48:21;;;;;;;;;;;;;;;51.58;6.21;97212.88;6297840;28;19936;-73
2023/05/28 07:51:27;;;;;;;;;;;;;;;54.25;5.12;97224.75;6298182;28;19924;-72
2023/05/28 07:54:29;;;;;;;;;;;;;;;56.00;4.53;97227.00;6297905;28;19970;-72
2023/05/28 07:57:32;;;;;;;;;;;;;;;56.13;4.25;97221.84;6295712;28;19927;-73
2023/05/28 08:00:36;;;;;;;;;;;;;;;51.82;5.81;97231.56;6297606;28;20462;-74
2023/05/28 08:03:42;;;;;;;;;;;;;;;46.68;8.16;97204.59;6298229;28;19932;-74
2023/05/28 08:06:44;;;;;;;;;;;;;;;43.58;9.93;97182.13;6297914;28;20078;-73
2023/05/28 08:09:48;;;;;;;;;;;;;;;40.87;11.34;97187.38;6297717;28;19932;-74
2023/05/28 08:12:55;;;;;;;;;;;;;;;39.94;11.98;97181.50;6297838;28;19963;-74
2023/05/28 08:15:58;;;;;;;;;;;;;;;39.53;12.18;97170.56;6297548;28;19935;-73
2023/05/28 08:19:04;;;;;;;;;;;;;;;39.12;12.45;97173.34;6297355;28;20313;-73
2023/05/28 08:22:08;;;;;;;;;;;;;;;39.07;12.95;97176.94;6297753;28;19921;-73
2023/05/28 08:25:15;;;;;;;;;;;;;;;38.45;13.59;97153.19;6297609;28;19924;-74
2023/05/28 08:28:26;;;;;;;;;;;;;;;38.58;13.26;97168.31;6295644;28;19924;-73
2023/05/28 08:31:31;;;;;;;;;;;;;;;39.28;12.43;97169.47;6297401;28;19924;-74
2023/05/28 08:34:36;;;;;;;;;;;;;;;38.65;12.89;97174.41;6297318;28;20385;-74
2023/05/28 08:37:39;;;;;;;;;;;;;;;37.08;14.02;97174.09;6297120;28;19924;-75
2023/05/28 08:40:43;;;;;;;;;;;;;;;36.44;14.68;97168.53;6297034;28;19977;-74
2023/05/28 08:43:47;;;;;;;;;;;;;;;36.17;14.81;97169.31;6297343;28;19928;-75
2023/05/28 08:46:51;;;;;;;;;;;;;;;36.12;15.28;97177.50;6296611;28;19924;-73
2023/05/28 08:49:54;;;;;;;;;;;;;;;35.93;15.48;97173.41;6296543;28;20372;-73
2023/05/28 08:52:56;;;;;;;;;;;;;;;35.73;15.16;97173.97;6296438;28;19924;-74
2023/05/28 08:56:00;;;;;;;;;;;;;;;35.48;15.54;97171.66;6296908;28;19924;-75
2023/05/28 08:59:01;;;;;;;;;;;;;;;35.25;15.49;97170.78;6296529;28;19924;-74
2023/05/28 09:02:06;;;;;;;;;;;;;;;35.14;15.54;97171.69;6297446;28;20287;-74
2023/05/28 09:05:12;;;;;;;;;;;;;;;35.04;15.64;97172.31;6296435;28;19924;-73
2023/05/28 09:08:13;;;;;;;;;;;;;;;35.23;15.50;97174.84;6296080;28;19924;-74
2023/05/28 09:11:14;;;;;;;;;;;;;;;35.43;15.69;97174.31;6296078;28;19924;-74
2023/05/28 09:14:19;;;;;;;;;;;;;;;35.84;16.08;97180.38;6295753;28;19931;-74
2023/05/28 09:17:39;;;;;;;;;;;;;;;36.20;15.54;97181.69;6296452;28;19925;-73
2023/05/28 09:20:41;;;;;;;;;;;;;;;38.19;13.93;97177.00;6295793;28;19932;-73
2023/05/28 09:23:46;;;;;;;;;;;;;;;37.67;14.13;97175.06;6296116;28;20018;-74
2023/05/28 09:26:53;;;;;;;;;;;;;;;37.49;15.02;97179.94;6295011;28;19969;-72
2023/05/28 09:29:54;;;;;;;;;;;;;;;39.36;13.19;97175.56;6295689;28;19950;-72
2023/05/28 09:33:05;;;;;;;;;;;;;;;40.32;12.14;97190.19;6295582;28;19924;-73
2023/05/28 09:36:07;;;;;;;;;;;;;;;39.00;12.70;97178.31;6295372;28;19932;-73
2023/05/28 09:39:09;;;;;;;;;;;;;;;37.90;13.62;97177.38;6295705;28;19925;-73
2023/05/28 09:42:10;;;;;;;;;;;;;;;37.24;14.32;97174.22;6295376;28;19931;-73
2023/05/28 09:45:21;;;;;;;;;;;;;;;36.69;14.08;97175.38;6295169;28;19928;-73
2023/05/28 09:48:22;;;;;;;;;;;;;;;35.72;15.44;97155.84;6294955;28;19924;-73
2023/05/28 09:51:25;;;;;;;;;;;;;;;35.02;15.65;97151.78;6294868;28;19924;-73
2023/05/28 09:54:31;;;;;;;;;;;;;;;34.94;15.99;97150.28;6295414;28;19920;-73
2023/05/28 09:57:40;;;;;;;;;;;;;;;34.91;16.11;97155.44;6295181;28;19924;-74
2023/05/28 10:00:52;;;;;;;;;;;;;;;34.79;15.48;97159.06;6295562;28;19925;-73
2023/05/28 10:04:07;;;;;;;;;;;;;;;35.77;14.39;97168.78;6295055;28;19932;-73
2023/05/28 10:07:10;;;;;;;;;;;;;;;36.76;13.30;97165.03;6294986;28;19993;-73
2023/05/28 10:10:14;;;;;;;;;;;;;;;36.28;14.10;97158.47;6294667;28;19966;-73
2023/05/28 10:13:18;;;;;;;;;;;;;;;36.90;14.47;97179.97;6295355;28;20313;-74
2023/05/28 10:16:24;;;;;;;;;;;;;;;38.22;13.17;97170.97;6295178;28;20073;-72
2023/05/28 10:19:30;;;;;;;;;;;;;;;38.30;13.33;97167.66;6294315;28;20253;-72
2023/05/28 10:22:32;;;;;;;;;;;;;;;38.18;13.59;97167.09;6294321;28;19925;-74
2023/05/28 10:25:37;;;;;;;;;;;;;;;37.32;13.84;97172.91;6294839;28;19924;-74
2023/05/28 10:28:38;;;;;;;;;;;;;;;37.35;14.16;97166.91;6294714;28;19955;-73
2023/05/28 10:31:44;;;;;;;;;;;;;;;37.52;14.12;97165.66;6294976;28;20436;-74
2023/05/28 10:34:50;;;;;;;;;;;;;;;37.87;13.76;97155.94;6294688;28;20600;-74
2023/05/28 10:38:03;;;;;;;;;;;;;;;37.81;13.68;97161.69;6295051;28;20010;-74
2023/05/28 10:41:07;;;;;;;;;;;;;;;38.11;13.74;97155.53;6294304;28;19932;-75
2023/05/28 10:44:11;;;;;;;;;;;;;;;39.09;12.86;97157.38;6295094;28;19978;-73
2023/05/28 10:47:18;;;;;;;;;;;;;;;39.93;12.34;97150.38;6294813;28;19925;-73
2023/05/28 10:50:21;;;;;;;;;;;;;;;40.10;12.16;97161.03;6294189;28;20390;-73
2023/05/28 10:53:22;;;;;;;;;;;;;;;40.04;12.12;97151.16;6294475;28;19924;-74
2023/05/28 10:56:27;;;;;;;;;;;;;;;40.15;11.94;97160.19;6294834;28;19933;-76
2023/05/28 10:59:44;;;;;;;;;;;;;;;40.15;12.07;97174.81;6294656;28;19924;-73
2023/05/28 11:02:51;;;;;;;;;;;;;;;39.72;12.38;97160.63;6294579;28;19930;-73
2023/05/28 11:05:52;;;;;;;;;;;;;;;39.11;12.89;97157.94;6294457;28;19925;-73
2023/05/28 11:08:53;;;;;;;;;;;;;;;39.29;12.36;97151.03;6295277;28;20085;-74
2023/05/28 11:11:58;;;;;;;;;;;;;;;38.52;13.09;97147.41;6299584;28;19929;-74
2023/05/28 11:15:02;;;;;;;;;;;;;;;38.62;13.20;97141.94;6298966;28;20309;-75
2023/05/28 11:18:07;;;;;;;;;;;;;;;38.97;12.76;97148.59;6298847;28;20010;-73
2023/05/28 11:21:13;;;;;;;;;;;;;;;39.07;12.58;97154.09;6299211;28;19924;-72
2023/05/28 11:24:14;;;;;;;;;;;;;;;38.14;13.44;97153.06;6298871;28;19932;-73
2023/05/28 11:27:17;;;;;;;;;;;;;;;36.60;14.30;97151.19;6298594;28;19924;-73
2023/05/28 11:30:24;;;;;;;;;;;;;;;35.36;14.74;97141.66;6298640;28;19924;-74
2023/05/28 11:33:28;;;;;;;;;;;;;;;34.54;15.71;97128.53;6298332;28;19932;-72
2023/05/28 11:36:30;;;;;;;;;;;;;;;33.57;16.54;97129.31;6298312;28;19924;-74
2023/05/28 11:39:34;;;;;;;;;;;;;;;33.22;16.90;97122.81;6298492;28;19925;-73
2023/05/28 11:42:36;;;;;;;;;;;;;;;32.98;17.40;97137.47;6297998;28;19979;-73
2023/05/28 11:45:42;;;;;;;;;;;;;;;32.56;17.34;97135.63;6298397;28;20268;-74
2023/05/28 11:48:45;;;;;;;;;;;;;;;32.52;16.87;97133.59;6298070;28;19924;-74
2023/05/28 11:51:54;;;;;;;;;;;;;;;32.51;16.76;97126.50;6298038;28;19924;-73
2023/05/28 11:54:58;;;;;;;;;;;;;;;32.62;16.98;97129.25;6298191;28;19924;-73
2023/05/28 11:58:00;;;;;;;;;;;;;;;33.27;16.38;97125.66;6297655;28;19959;-72
2023/05/28 12:01:01;;;;;;;;;;;;;;;33.79;16.23;97129.50;6296939;28;20019;-73
2023/05/28 12:04:06;;;;;;;;;;;;;;;33.90;16.42;97124.03;6298250;28;19966;-74
2023/05/28 12:07:11;;;;;;;;;;;;;;;33.64;16.61;97139.03;6298437;28;19920;-76
2023/05/28 12:10:16;;;;;;;;;;;;;;;33.58;16.48;97131.81;6299094;28;19924;-74
2023/05/28 12:13:17;;;;;;;;;;;;;;;33.81;16.42;97120.03;6298517;28;19982;-75
2023/05/28 12:16:25;;;;;;;;;;;;;;;34.42;15.80;97125.84;6297907;28;19924;-74
2023/05/28 12:19:31;;;;;;;;;;;;;;;34.35;15.67;97115.06;6297364;28;20435;-75
2023/05/28 12:22:35;;;;;;;;;;;;;;;34.76;15.58;97120.44;6297452;28;19970;-74
2023/05/28 12:25:45;;;;;;;;;;;;;;;34.84;15.50;97122.78;6296355;28;19944;-73
2023/05/28 12:28:49;;;;;;;;;;;;;;;34.56;15.63;97115.47;6297488;28;19924;-75
2023/05/28 12:31:59;;;;;;;;;;;;;;;34.45;15.62;97110.88;6297803;28;19925;-74
2023/05/28 12:35:03;;;;;;;;;;;;;;;34.31;15.82;97113.94;6297182;28;20429;-74
2023/05/28 12:38:05;;;;;;;;;;;;;;;34.08;15.74;97112.09;6297154;28;20022;-73
2023/05/28 12:41:08;;;;;;;;;;;;;;;33.86;16.03;97109.22;6297268;28;19978;-74
2023/05/28 12:44:12;;;;;;;;;;;;;;;33.48;16.03;97115.19;6297095;28;20371;-74
2023/05/28 12:47:18;;;;;;;;;;;;;;;33.00;16.14;97114.38;6297345;28;20398;-73
2023/05/28 12:50:23;;;;;;;;;;;;;;;32.96;16.47;97124.09;6296732;28;19925;-74
2023/05/28 12:53:24;;;;;;;;;;;;;;;33.09;16.20;97117.59;6296393;28;19924;-73
2023/05/28 12:56:30;;;;;;;;;;;;;;;32.92;16.62;97122.06;6296706;28;20316;-73
2023/05/28 12:59:34;;;;;;;;;;;;;;;32.32;16.87;97123.78;6296611;28;19928;-74
2023/05/28 13:02:37;;;;;;;;;;;;;;;32.10;17.05;97115.34;6296509;28;20337;-73
2023/05/28 13:05:41;;;;;;;;;;;;;;;32.24;17.28;97117.84;6295856;28;19963;-73
2023/05/28 13:08:46;;;;;;;;;;;;;;;32.29;16.90;97107.09;6296636;28;19920;-73
2023/05/28 13:11:50;;;;;;;;;;;;;;;32.19;17.06;97124.84;6296570;28;19924;-73
2023/05/28 13:14:55;;;;;;;;;;;;;;;32.12;17.26;97124.09;6296208;28;19924;-73
2023/05/28 13:17:59;;;;;;;;;;;;;;;31.91;17.38;97121.88;6296181;28;20393;-73
2023/05/28 13:21:03;;;;;;;;;;;;;;;31.83;17.56;97114.00;6294729;28;19924;-74
2023/05/28 13:24:07;;;;;;;;;;;;;;;32.12;17.52;97125.97;6295497;28;20297;-73
2023/05/28 13:27:13;;;;;;;;;;;;;;;31.83;17.47;97119.44;6295990;28;19924;-73
2023/05/28 13:30:17;;;;;;;;;;;;;;;31.83;17.53;97124.88;6295876;28;19928;-74
2023/05/28 13:33:18;;;;;;;;;;;;;;;31.61;17.58;97128.06;6294521;28;19924;-74
2023/05/28 13:36:24;;;;;;;;;;;;;;;31.05;17.93;97126.31;6295563;28;19924;-75
2023/05/28 13:39:25;;;;;;;;;;;;;;;30.66;18.50;97125.59;6295319;28;20492;-73
2023/05/28 13:42:28;;;;;;;;;;;;;;;30.50;18.85;97126.13;6295204;28;20011;-73
2023/05/28 13:45:34;;;;;;;;;;;;;;;30.22;19.13;97130.06;6295755;28;19924;-73
2023/05/28 13:48:35;;;;;;;;;;;;;;;30.07;19.19;97124.06;6294890;28;19927;-73
2023/05/28 13:51:41;;;;;;;;;;;;;;;29.95;19.50;97124.75;6295123;28;19928;-73
2023/05/28 13:54:47;;;;;;;;;;;;;;;29.85;19.34;97123.53;6295665;28;19924;-74
2023/05/28 13:57:51;;;;;;;;;;;;;;;29.81;19.41;97128.56;6295142;28;19924;-75
2023/05/28 14:00:58;;;;;;;;;;;;;;;29.77;19.72;97127.31;6295098;28;20034;-74
2023/05/28 14:03:59;;;;;;;;;;;;;;;29.65;19.57;97123.63;6295440;28;19924;-74
2023/05/28 14:07:03;;;;;;;;;;;;;;;29.31;20.16;97133.69;6294822;28;19928;-76
2023/05/28 14:10:07;;;;;;;;;;;;;;;28.97;20.33;97132.88;6295022;28;19924;-75
2023/05/28 14:13:11;;;;;;;;;;;;;;;29.03;20.37;97137.50;6295372;28;20364;-74
2023/05/28 14:16:15;;;;;;;;;;;;;;;29.17;20.21;97132.06;6294824;28;20015;-73
2023/05/28 14:19:17;;;;;;;;;;;;;;;29.42;20.29;97145.78;6294668;28;20025;-74
2023/05/28 14:22:20;;;;;;;;;;;;;;;29.62;19.76;97145.72;6294985;28;19931;-74
2023/05/28 14:25:24;;;;;;;;;;;;;;;29.91;20.12;97139.78;6295149;28;19928;-75
2023/05/28 14:28:27;;;;;;;;;;;;;;;29.70;20.10;97137.38;6294721;28;19921;-73
2023/05/28 14:31:28;;;;;;;;;;;;;;;29.66;20.18;97138.84;6294183;28;20027;-74
2023/05/28 14:34:31;;;;;;;;;;;;;;;29.71;19.62;97144.44;6294478;28;20317;-74
2023/05/28 14:37:37;;;;;;;;;;;;;;;29.51;20.06;97144.50;6294847;28;19921;-73
2023/05/28 14:40:41;;;;;;;;;;;;;;;29.27;20.28;97137.84;6294886;28;19924;-73
2023/05/28 14:43:45;;;;;;;;;;;;;;;29.33;20.02;97147.88;6295883;28;19928;-74
2023/05/28 14:46:46;;;;;;;;;;;;;;;29.21;19.76;97146.84;6299181;28;19964;-74
2023/05/28 14:49:49;;;;;;;;;;;;;;;29.10;19.21;97156.44;6299265;28;20065;-75
2023/05/28 14:52:51;;;;;;;;;;;;;;;28.89;19.13;97152.06;6299410;28;19932;-74
2023/05/28 14:55:52;;;;;;;;;;;;;;;28.51;19.56;97149.97;6299142;28;19924;-73
2023/05/28 14:58:58;;;;;;;;;;;;;;;28.66;19.30;97157.88;6299613;28;19924;-77
2023/05/28 15:02:01;;;;;;;;;;;;;;;28.35;19.55;97147.59;6299342;28;19925;-77
2023/05/28 15:05:03;;;;;;;;;;;;;;;28.15;19.69;97145.69;6298851;28;20305;-76
2023/05/28 15:08:07;;;;;;;;;;;;;;;28.03;19.91;97158.13;6299406;28;19928;-76
2023/05/28 15:11:12;;;;;;;;;;;;;;;28.02;19.94;97155.63;6299410;28;19925;-75
2023/05/28 15:14:18;;;;;;;;;;;;;;;28.06;20.01;97155.03;6299092;28;19924;-75
2023/05/28 15:17:25;;;;;;;;;;;;;;;27.71;20.14;97155.06;6299352;28;20401;-75
2023/05/28 15:20:26;;;;;;;;;;;;;;;27.77;20.30;97148.84;6298850;28;19932;-75
2023/05/28 15:23:29;;;;;;;;;;;;;;;27.51;20.55;97154.13;6298812;28;19924;-74
2023/05/28 15:26:32;;;;;;;;;;;;;;;27.47;20.78;97159.09;6298907;28;19925;-75
2023/05/28 15:29:42;;;;;;;;;;;;;;;27.43;20.84;97157.84;6298545;28;20373;-76
2023/05/28 15:32:44;;;;;;;;;;;;;;;27.29;21.05;97156.94;6297725;28;19924;-75
2023/05/28 15:35:45;;;;;;;;;;;;;;;27.03;21.23;97162.09;6298001;28;20043;-75
2023/05/28 15:38:46;;;;;;;;;;;;;;;26.93;21.29;97156.22;6297948;28;20136;-74
2023/05/28 15:41:51;;;;;;;;;;;;;;;26.53;21.49;97161.28;6298451;28;19924;-75
2023/05/28 15:44:52;;;;;;;;;;;;;;;26.45;22.04;97164.91;6298123;28;19925;-74
2023/05/28 15:47:55;;;;;;;;;;;;;;;26.30;21.94;97162.25;6298262;28;20022;-76
2023/05/28 15:51:01;;;;;;;;;;;;;;;26.16;22.05;97160.47;6298591;28;19924;-75
2023/05/28 15:54:07;;;;;;;;;;;;;;;26.25;22.34;97162.00;6298444;28;19924;-74
2023/05/28 15:57:09;;;;;;;;;;;;;;;26.00;22.66;97166.06;6296983;28;19924;-75